sensor_id;sensor_type;location;lat;lon;timestamp;temperature;humidity
74666;DHT22;71408;50.106;8.694;2023-08-31T00:00:41;24.20;49.80
74666;DHT22;71408;50.106;8.694;2023-08-31T00:03:07;24.20;49.90
74666;DHT22;71408;50.106;8.694;2023-08-31T00:05:36;24.20;49.90
74666;DHT22;71408;50.106;8.694;2023-08-31T00:08:02;24.30;49.90
74666;DHT22;71408;50.106;8.694;2023-08-31T00:10:27;24.20;49.80
74666;DHT22;71408;50.106;8.694;2023-08-31T00:12:55;24.30;49.90
74666;DHT22;71408;50.106;8.694;2023-08-31T00:15:20;24.20;49.90
74666;DHT22;71408;50.106;8.694;2023-08-31T00:17:46;24.20;49.90
74666;DHT22;71408;50.106;8.694;2023-08-31T00:20:11;24.30;49.80
74666;DHT22;71408;50.106;8.694;2023-08-31T00:22:37;24.20;49.90
74666;DHT22;71408;50.106;8.694;2023-08-31T00:25:03;24.30;49.90
74666;DHT22;71408;50.106;8.694;2023-08-31T00:27:31;24.20;49.80
74666;DHT22;71408;50.106;8.694;2023-08-31T00:29:56;24.20;49.90
74666;DHT22;71408;50.106;8.694;2023-08-31T00:32:23;24.20;50.00
74666;DHT22;71408;50.106;8.694;2023-08-31T00:34:49;24.20;50.00
74666;DHT22;71408;50.106;8.694;2023-08-31T00:37:14;24.20;50.10
74666;DHT22;71408;50.106;8.694;2023-08-31T00:39:40;24.20;50.00
74666;DHT22;71408;50.106;8.694;2023-08-31T00:42:05;24.20;50.00
74666;DHT22;71408;50.106;8.694;2023-08-31T00:44:31;24.20;49.90
74666;DHT22;71408;50.106;8.694;2023-08-31T00:46:56;24.20;50.00
74666;DHT22;71408;50.106;8.694;2023-08-31T00:49:22;24.20;50.00
74666;DHT22;71408;50.106;8.694;2023-08-31T00:51:48;24.20;50.00
74666;DHT22;71408;50.106;8.694;2023-08-31T00:54:16;24.20;50.00
74666;DHT22;71408;50.106;8.694;2023-08-31T00:56:42;24.10;50.00
74666;DHT22;71408;50.106;8.694;2023-08-31T00:59:08;24.10;50.00
74666;DHT22;71408;50.106;8.694;2023-08-31T01:01:37;24.20;50.10
74666;DHT22;71408;50.106;8.694;2023-08-31T01:11:00;24.10;50.00
74666;DHT22;71408;50.106;8.694;2023-08-31T01:12:53;24.10;50.00
74666;DHT22;71408;50.106;8.694;2023-08-31T01:15:20;24.10;50.10
74666;DHT22;71408;50.106;8.694;2023-08-31T01:17:50;24.10;50.10
74666;DHT22;71408;50.106;8.694;2023-08-31T01:20:21;24.10;50.10
74666;DHT22;71408;50.106;8.694;2023-08-31T01:23:06;24.10;50.10
74666;DHT22;71408;50.106;8.694;2023-08-31T01:25:32;24.10;50.00
74666;DHT22;71408;50.106;8.694;2023-08-31T01:27:58;24.10;50.10
74666;DHT22;71408;50.106;8.694;2023-08-31T01:30:24;24.10;50.10
74666;DHT22;71408;50.106;8.694;2023-08-31T01:32:49;24.10;50.10
74666;DHT22;71408;50.106;8.694;2023-08-31T01:35:16;24.10;50.10
74666;DHT22;71408;50.106;8.694;2023-08-31T01:37:44;24.10;50.10
74666;DHT22;71408;50.106;8.694;2023-08-31T01:40:12;24.10;50.10
74666;DHT22;71408;50.106;8.694;2023-08-31T01:42:40;24.10;50.10
74666;DHT22;71408;50.106;8.694;2023-08-31T01:45:07;24.10;50.00
74666;DHT22;71408;50.106;8.694;2023-08-31T01:47:33;24.10;50.00
74666;DHT22;71408;50.106;8.694;2023-08-31T01:49:59;24.10;49.90
74666;DHT22;71408;50.106;8.694;2023-08-31T01:52:24;24.10;49.90
74666;DHT22;71408;50.106;8.694;2023-08-31T01:54:50;24.10;49.90
74666;DHT22;71408;50.106;8.694;2023-08-31T01:57:15;24.10;50.00
74666;DHT22;71408;50.106;8.694;2023-08-31T01:59:41;24.10;50.10
74666;DHT22;71408;50.106;8.694;2023-08-31T02:02:06;24.10;50.10
74666;DHT22;71408;50.106;8.694;2023-08-31T02:04:32;24.10;50.10
74666;DHT22;71408;50.106;8.694;2023-08-31T02:06:58;24.00;50.10
74666;DHT22;71408;50.106;8.694;2023-08-31T02:09:23;24.00;50.20
74666;DHT22;71408;50.106;8.694;2023-08-31T02:11:49;24.00;50.20
74666;DHT22;71408;50.106;8.694;2023-08-31T02:14:14;24.00;50.30
74666;DHT22;71408;50.106;8.694;2023-08-31T02:16:40;24.00;50.20
74666;DHT22;71408;50.106;8.694;2023-08-31T02:19:05;24.00;50.20
74666;DHT22;71408;50.106;8.694;2023-08-31T02:21:31;24.00;50.20
74666;DHT22;71408;50.106;8.694;2023-08-31T02:23:56;24.00;50.10
74666;DHT22;71408;50.106;8.694;2023-08-31T02:26:21;24.00;50.20
74666;DHT22;71408;50.106;8.694;2023-08-31T02:28:47;23.90;50.30
74666;DHT22;71408;50.106;8.694;2023-08-31T02:31:13;23.90;50.20
74666;DHT22;71408;50.106;8.694;2023-08-31T02:33:39;24.00;50.20
74666;DHT22;71408;50.106;8.694;2023-08-31T02:36:04;23.90;50.20
74666;DHT22;71408;50.106;8.694;2023-08-31T02:38:30;23.90;50.10
74666;DHT22;71408;50.106;8.694;2023-08-31T02:40:55;23.90;50.10
74666;DHT22;71408;50.106;8.694;2023-08-31T02:43:21;23.90;50.10
74666;DHT22;71408;50.106;8.694;2023-08-31T02:45:46;24.00;50.20
74666;DHT22;71408;50.106;8.694;2023-08-31T02:48:12;24.00;50.10
74666;DHT22;71408;50.106;8.694;2023-08-31T02:50:38;24.00;50.20
74666;DHT22;71408;50.106;8.694;2023-08-31T02:53:04;23.90;50.10
74666;DHT22;71408;50.106;8.694;2023-08-31T02:55:32;23.90;50.10
74666;DHT22;71408;50.106;8.694;2023-08-31T02:57:57;23.90;50.00
74666;DHT22;71408;50.106;8.694;2023-08-31T03:00:22;23.90;50.10
74666;DHT22;71408;50.106;8.694;2023-08-31T03:02:48;23.90;50.00
74666;DHT22;71408;50.106;8.694;2023-08-31T03:05:17;24.00;50.10
74666;DHT22;71408;50.106;8.694;2023-08-31T03:07:43;23.90;50.10
74666;DHT22;71408;50.106;8.694;2023-08-31T03:10:08;23.90;50.00
74666;DHT22;71408;50.106;8.694;2023-08-31T03:12:34;23.90;50.00
74666;DHT22;71408;50.106;8.694;2023-08-31T03:15:00;23.90;50.10
74666;DHT22;71408;50.106;8.694;2023-08-31T03:17:25;23.90;50.10
74666;DHT22;71408;50.106;8.694;2023-08-31T03:19:51;23.90;50.20
74666;DHT22;71408;50.106;8.694;2023-08-31T03:22:16;23.90;50.20
74666;DHT22;71408;50.106;8.694;2023-08-31T03:24:41;23.90;50.10
74666;DHT22;71408;50.106;8.694;2023-08-31T03:27:07;23.90;50.00
74666;DHT22;71408;50.106;8.694;2023-08-31T03:29:33;23.90;50.00
74666;DHT22;71408;50.106;8.694;2023-08-31T03:31:59;23.90;50.00
74666;DHT22;71408;50.106;8.694;2023-08-31T03:34:28;23.90;50.00
74666;DHT22;71408;50.106;8.694;2023-08-31T03:36:54;23.90;50.00
74666;DHT22;71408;50.106;8.694;2023-08-31T03:39:20;23.90;50.00
74666;DHT22;71408;50.106;8.694;2023-08-31T03:41:45;23.90;50.00
74666;DHT22;71408;50.106;8.694;2023-08-31T03:44:10;23.80;49.90
74666;DHT22;71408;50.106;8.694;2023-08-31T03:46:36;23.80;50.00
74666;DHT22;71408;50.106;8.694;2023-08-31T03:49:02;23.80;50.00
74666;DHT22;71408;50.106;8.694;2023-08-31T03:51:27;23.80;49.90
74666;DHT22;71408;50.106;8.694;2023-08-31T03:53:53;23.80;49.90
74666;DHT22;71408;50.106;8.694;2023-08-31T03:56:20;23.80;50.00
74666;DHT22;71408;50.106;8.694;2023-08-31T03:58:45;23.80;50.00
74666;DHT22;71408;50.106;8.694;2023-08-31T04:01:11;23.80;50.00
74666;DHT22;71408;50.106;8.694;2023-08-31T04:03:38;23.80;50.00
74666;DHT22;71408;50.106;8.694;2023-08-31T04:06:03;23.80;50.00
74666;DHT22;71408;50.106;8.694;2023-08-31T04:08:30;23.80;50.00
74666;DHT22;71408;50.106;8.694;2023-08-31T04:10:55;23.80;50.00
74666;DHT22;71408;50.106;8.694;2023-08-31T04:13:21;23.80;50.00
74666;DHT22;71408;50.106;8.694;2023-08-31T04:15:47;23.80;49.90
74666;DHT22;71408;50.106;8.694;2023-08-31T04:18:13;23.80;49.90
74666;DHT22;71408;50.106;8.694;2023-08-31T04:20:38;23.80;49.90
74666;DHT22;71408;50.106;8.694;2023-08-31T04:23:04;23.80;49.80
74666;DHT22;71408;50.106;8.694;2023-08-31T04:25:30;23.80;49.90
74666;DHT22;71408;50.106;8.694;2023-08-31T04:27:58;23.80;49.80
74666;DHT22;71408;50.106;8.694;2023-08-31T04:30:24;23.70;49.80
74666;DHT22;71408;50.106;8.694;2023-08-31T04:32:49;23.70;49.90
74666;DHT22;71408;50.106;8.694;2023-08-31T04:35:15;23.70;49.90
74666;DHT22;71408;50.106;8.694;2023-08-31T04:37:41;23.70;49.90
74666;DHT22;71408;50.106;8.694;2023-08-31T04:40:06;23.70;49.80
74666;DHT22;71408;50.106;8.694;2023-08-31T04:42:34;23.70;49.80
74666;DHT22;71408;50.106;8.694;2023-08-31T04:44:59;23.70;49.80
74666;DHT22;71408;50.106;8.694;2023-08-31T04:47:25;23.70;49.90
74666;DHT22;71408;50.106;8.694;2023-08-31T04:49:50;23.70;49.90
74666;DHT22;71408;50.106;8.694;2023-08-31T04:52:15;23.70;49.80
74666;DHT22;71408;50.106;8.694;2023-08-31T04:54:41;23.70;49.80
74666;DHT22;71408;50.106;8.694;2023-08-31T04:57:06;23.60;50.00
74666;DHT22;71408;50.106;8.694;2023-08-31T04:59:32;23.50;50.20
74666;DHT22;71408;50.106;8.694;2023-08-31T05:01:58;23.40;50.40
74666;DHT22;71408;50.106;8.694;2023-08-31T05:04:23;23.30;50.50
74666;DHT22;71408;50.106;8.694;2023-08-31T05:06:49;23.20;50.60
74666;DHT22;71408;50.106;8.694;2023-08-31T05:09:14;23.20;50.80
74666;DHT22;71408;50.106;8.694;2023-08-31T05:11:40;23.20;50.90
74666;DHT22;71408;50.106;8.694;2023-08-31T05:14:05;23.10;50.90
74666;DHT22;71408;50.106;8.694;2023-08-31T05:16:31;23.10;50.90
74666;DHT22;71408;50.106;8.694;2023-08-31T05:18:56;23.10;50.90
74666;DHT22;71408;50.106;8.694;2023-08-31T05:21:21;23.10;50.80
74666;DHT22;71408;50.106;8.694;2023-08-31T05:23:47;23.10;50.80
74666;DHT22;71408;50.106;8.694;2023-08-31T05:26:12;23.10;50.80
74666;DHT22;71408;50.106;8.694;2023-08-31T05:28:39;23.00;50.90
74666;DHT22;71408;50.106;8.694;2023-08-31T05:31:04;23.00;50.80
74666;DHT22;71408;50.106;8.694;2023-08-31T05:33:30;23.00;50.90
74666;DHT22;71408;50.106;8.694;2023-08-31T05:36:02;23.00;50.80
74666;DHT22;71408;50.106;8.694;2023-08-31T05:38:29;23.00;50.70
74666;DHT22;71408;50.106;8.694;2023-08-31T05:40:54;22.90;50.70
74666;DHT22;71408;50.106;8.694;2023-08-31T05:43:20;22.90;50.80
74666;DHT22;71408;50.106;8.694;2023-08-31T05:45:45;22.90;50.80
74666;DHT22;71408;50.106;8.694;2023-08-31T05:48:11;22.90;50.80
74666;DHT22;71408;50.106;8.694;2023-08-31T05:50:37;22.90;50.80
74666;DHT22;71408;50.106;8.694;2023-08-31T05:53:02;22.90;50.80
74666;DHT22;71408;50.106;8.694;2023-08-31T05:55:29;22.80;50.90
74666;DHT22;71408;50.106;8.694;2023-08-31T05:57:54;22.80;50.80
74666;DHT22;71408;50.106;8.694;2023-08-31T06:00:20;22.80;50.90
74666;DHT22;71408;50.106;8.694;2023-08-31T06:02:45;22.80;50.80
74666;DHT22;71408;50.106;8.694;2023-08-31T06:05:11;22.80;51.50
74666;DHT22;71408;50.106;8.694;2023-08-31T06:07:42;22.80;50.90
74666;DHT22;71408;50.106;8.694;2023-08-31T06:10:07;22.80;50.90
74666;DHT22;71408;50.106;8.694;2023-08-31T06:12:33;22.80;50.90
74666;DHT22;71408;50.106;8.694;2023-08-31T06:14:58;22.80;51.00
74666;DHT22;71408;50.106;8.694;2023-08-31T06:17:24;22.80;50.90
74666;DHT22;71408;50.106;8.694;2023-08-31T06:19:49;22.80;50.90
74666;DHT22;71408;50.106;8.694;2023-08-31T06:22:14;22.80;50.80
74666;DHT22;71408;50.106;8.694;2023-08-31T06:24:40;22.80;50.70
74666;DHT22;71408;50.106;8.694;2023-08-31T06:27:06;22.80;50.70
74666;DHT22;71408;50.106;8.694;2023-08-31T06:29:31;22.70;50.70
74666;DHT22;71408;50.106;8.694;2023-08-31T06:31:57;22.70;50.60
74666;DHT22;71408;50.106;8.694;2023-08-31T06:34:22;22.70;50.60
74666;DHT22;71408;50.106;8.694;2023-08-31T06:36:48;22.70;50.60
74666;DHT22;71408;50.106;8.694;2023-08-31T06:39:13;22.70;50.60
74666;DHT22;71408;50.106;8.694;2023-08-31T06:41:39;22.70;51.20
74666;DHT22;71408;50.106;8.694;2023-08-31T06:44:04;22.70;50.60
74666;DHT22;71408;50.106;8.694;2023-08-31T06:46:30;22.70;50.50
74666;DHT22;71408;50.106;8.694;2023-08-31T06:49:03;22.80;50.50
74666;DHT22;71408;50.106;8.694;2023-08-31T06:51:30;22.80;50.40
74666;DHT22;71408;50.106;8.694;2023-08-31T06:53:55;22.90;50.40
74666;DHT22;71408;50.106;8.694;2023-08-31T06:56:21;23.00;50.30
74666;DHT22;71408;50.106;8.694;2023-08-31T06:58:46;23.00;50.10
74666;DHT22;71408;50.106;8.694;2023-08-31T07:01:12;23.00;50.00
74666;DHT22;71408;50.106;8.694;2023-08-31T07:03:38;23.00;50.10
74666;DHT22;71408;50.106;8.694;2023-08-31T07:06:03;23.10;50.10
74666;DHT22;71408;50.106;8.694;2023-08-31T07:08:29;23.10;50.00
74666;DHT22;71408;50.106;8.694;2023-08-31T07:10:55;23.10;49.90
74666;DHT22;71408;50.106;8.694;2023-08-31T07:13:21;23.10;49.90
74666;DHT22;71408;50.106;8.694;2023-08-31T07:15:47;23.10;49.90
74666;DHT22;71408;50.106;8.694;2023-08-31T07:18:14;23.10;50.00
74666;DHT22;71408;50.106;8.694;2023-08-31T07:20:40;23.20;49.90
74666;DHT22;71408;50.106;8.694;2023-08-31T07:23:05;23.20;49.90
74666;DHT22;71408;50.106;8.694;2023-08-31T07:25:30;23.30;49.80
74666;DHT22;71408;50.106;8.694;2023-08-31T07:27:56;23.30;49.80
74666;DHT22;71408;50.106;8.694;2023-08-31T07:30:21;23.20;49.80
74666;DHT22;71408;50.106;8.694;2023-08-31T07:32:47;23.20;49.80
74666;DHT22;71408;50.106;8.694;2023-08-31T07:35:12;23.20;49.80
74666;DHT22;71408;50.106;8.694;2023-08-31T07:37:38;23.30;49.90
74666;DHT22;71408;50.106;8.694;2023-08-31T07:40:04;23.30;49.90
74666;DHT22;71408;50.106;8.694;2023-08-31T07:42:34;23.30;49.80
74666;DHT22;71408;50.106;8.694;2023-08-31T07:44:59;23.40;49.80
74666;DHT22;71408;50.106;8.694;2023-08-31T07:47:25;23.40;49.80
74666;DHT22;71408;50.106;8.694;2023-08-31T07:49:50;23.40;49.70
74666;DHT22;71408;50.106;8.694;2023-08-31T07:52:15;23.40;49.60
74666;DHT22;71408;50.106;8.694;2023-08-31T07:54:41;23.40;49.60
74666;DHT22;71408;50.106;8.694;2023-08-31T07:57:07;23.40;49.70
74666;DHT22;71408;50.106;8.694;2023-08-31T07:59:33;23.30;49.70
74666;DHT22;71408;50.106;8.694;2023-08-31T08:01:58;23.40;49.70
74666;DHT22;71408;50.106;8.694;2023-08-31T08:04:24;23.40;49.60
74666;DHT22;71408;50.106;8.694;2023-08-31T08:06:51;23.50;49.50
74666;DHT22;71408;50.106;8.694;2023-08-31T08:09:16;23.50;49.50
74666;DHT22;71408;50.106;8.694;2023-08-31T08:11:42;23.50;49.50
74666;DHT22;71408;50.106;8.694;2023-08-31T08:14:08;23.50;49.50
74666;DHT22;71408;50.106;8.694;2023-08-31T08:16:34;23.50;49.30
74666;DHT22;71408;50.106;8.694;2023-08-31T08:19:01;23.50;49.40
74666;DHT22;71408;50.106;8.694;2023-08-31T08:21:26;23.50;49.40
74666;DHT22;71408;50.106;8.694;2023-08-31T08:23:52;23.50;49.40
74666;DHT22;71408;50.106;8.694;2023-08-31T08:26:17;23.50;49.50
74666;DHT22;71408;50.106;8.694;2023-08-31T08:28:43;23.50;49.60
74666;DHT22;71408;50.106;8.694;2023-08-31T08:31:08;23.50;49.50
74666;DHT22;71408;50.106;8.694;2023-08-31T08:33:33;23.60;49.30
74666;DHT22;71408;50.106;8.694;2023-08-31T08:36:00;23.50;49.40
74666;DHT22;71408;50.106;8.694;2023-08-31T08:38:26;23.50;49.40
74666;DHT22;71408;50.106;8.694;2023-08-31T08:40:51;23.40;49.40
74666;DHT22;71408;50.106;8.694;2023-08-31T08:43:18;23.50;49.40
74666;DHT22;71408;50.106;8.694;2023-08-31T08:45:46;23.50;49.30
74666;DHT22;71408;50.106;8.694;2023-08-31T08:48:13;23.50;49.20
74666;DHT22;71408;50.106;8.694;2023-08-31T08:50:39;23.50;49.10
74666;DHT22;71408;50.106;8.694;2023-08-31T08:53:05;23.60;49.10
74666;DHT22;71408;50.106;8.694;2023-08-31T08:55:32;23.60;49.10
74666;DHT22;71408;50.106;8.694;2023-08-31T08:57:58;23.60;49.10
74666;DHT22;71408;50.106;8.694;2023-08-31T09:00:25;23.60;49.10
74666;DHT22;71408;50.106;8.694;2023-08-31T09:02:51;23.60;49.00
74666;DHT22;71408;50.106;8.694;2023-08-31T09:05:17;23.60;49.10
74666;DHT22;71408;50.106;8.694;2023-08-31T09:08:01;23.60;49.00
74666;DHT22;71408;50.106;8.694;2023-08-31T09:10:34;23.60;49.10
74666;DHT22;71408;50.106;8.694;2023-08-31T09:13:00;23.60;49.10
74666;DHT22;71408;50.106;8.694;2023-08-31T09:15:35;23.50;48.90
74666;DHT22;71408;50.106;8.694;2023-08-31T09:18:00;23.60;49.00
74666;DHT22;71408;50.106;8.694;2023-08-31T09:20:26;23.60;48.90
74666;DHT22;71408;50.106;8.694;2023-08-31T09:22:52;23.60;48.80
74666;DHT22;71408;50.106;8.694;2023-08-31T09:25:21;23.60;48.90
74666;DHT22;71408;50.106;8.694;2023-08-31T09:27:46;23.60;48.90
74666;DHT22;71408;50.106;8.694;2023-08-31T09:30:12;23.60;48.70
74666;DHT22;71408;50.106;8.694;2023-08-31T09:32:38;23.60;48.60
74666;DHT22;71408;50.106;8.694;2023-08-31T09:35:07;23.60;48.70
74666;DHT22;71408;50.106;8.694;2023-08-31T09:37:33;23.60;48.70
74666;DHT22;71408;50.106;8.694;2023-08-31T09:40:01;23.70;48.70
74666;DHT22;71408;50.106;8.694;2023-08-31T09:42:36;23.70;48.60
74666;DHT22;71408;50.106;8.694;2023-08-31T09:45:03;23.70;48.50
74666;DHT22;71408;50.106;8.694;2023-08-31T09:47:29;23.70;48.30
74666;DHT22;71408;50.106;8.694;2023-08-31T09:49:54;23.70;49.00
74666;DHT22;71408;50.106;8.694;2023-08-31T09:52:20;23.70;48.40
74666;DHT22;71408;50.106;8.694;2023-08-31T09:54:46;23.70;48.40
74666;DHT22;71408;50.106;8.694;2023-08-31T09:57:12;23.70;48.30
74666;DHT22;71408;50.106;8.694;2023-08-31T09:59:39;23.70;48.20
74666;DHT22;71408;50.106;8.694;2023-08-31T10:02:05;23.70;48.10
74666;DHT22;71408;50.106;8.694;2023-08-31T10:04:31;23.70;48.10
74666;DHT22;71408;50.106;8.694;2023-08-31T10:06:58;23.70;48.10
74666;DHT22;71408;50.106;8.694;2023-08-31T10:09:23;23.70;48.00
74666;DHT22;71408;50.106;8.694;2023-08-31T10:11:49;23.70;48.00
74666;DHT22;71408;50.106;8.694;2023-08-31T10:14:15;23.70;47.90
74666;DHT22;71408;50.106;8.694;2023-08-31T10:16:42;23.70;47.90
74666;DHT22;71408;50.106;8.694;2023-08-31T10:19:09;23.80;47.90
74666;DHT22;71408;50.106;8.694;2023-08-31T10:21:34;23.80;47.90
74666;DHT22;71408;50.106;8.694;2023-08-31T10:24:00;23.80;47.90
74666;DHT22;71408;50.106;8.694;2023-08-31T10:26:29;23.80;47.80
74666;DHT22;71408;50.106;8.694;2023-08-31T10:28:54;23.80;47.60
74666;DHT22;71408;50.106;8.694;2023-08-31T10:31:20;23.70;47.70
74666;DHT22;71408;50.106;8.694;2023-08-31T10:34:00;23.80;47.60
74666;DHT22;71408;50.106;8.694;2023-08-31T10:36:44;23.70;47.60
74666;DHT22;71408;50.106;8.694;2023-08-31T10:39:13;23.70;47.70
74666;DHT22;71408;50.106;8.694;2023-08-31T10:41:41;23.70;47.70
74666;DHT22;71408;50.106;8.694;2023-08-31T10:44:20;23.80;47.70
74666;DHT22;71408;50.106;8.694;2023-08-31T10:46:45;23.80;47.60
74666;DHT22;71408;50.106;8.694;2023-08-31T10:49:14;23.90;47.60
74666;DHT22;71408;50.106;8.694;2023-08-31T10:51:41;23.90;47.50
74666;DHT22;71408;50.106;8.694;2023-08-31T10:54:08;23.90;47.40
74666;DHT22;71408;50.106;8.694;2023-08-31T10:56:42;23.90;47.40
74666;DHT22;71408;50.106;8.694;2023-08-31T10:59:16;24.00;47.40
74666;DHT22;71408;50.106;8.694;2023-08-31T11:01:51;23.90;47.40
74666;DHT22;71408;50.106;8.694;2023-08-31T11:04:18;23.90;47.40
74666;DHT22;71408;50.106;8.694;2023-08-31T11:06:43;24.00;47.50
74666;DHT22;71408;50.106;8.694;2023-08-31T11:09:18;24.00;47.50
74666;DHT22;71408;50.106;8.694;2023-08-31T11:11:44;24.00;47.50
74666;DHT22;71408;50.106;8.694;2023-08-31T11:14:10;24.00;47.30
74666;DHT22;71408;50.106;8.694;2023-08-31T11:16:37;24.00;47.30
74666;DHT22;71408;50.106;8.694;2023-08-31T11:19:03;24.00;47.30
74666;DHT22;71408;50.106;8.694;2023-08-31T11:21:30;24.00;47.20
74666;DHT22;71408;50.106;8.694;2023-08-31T11:23:56;24.00;47.10
74666;DHT22;71408;50.106;8.694;2023-08-31T11:26:26;24.00;46.90
74666;DHT22;71408;50.106;8.694;2023-08-31T11:28:52;23.90;47.20
74666;DHT22;71408;50.106;8.694;2023-08-31T11:31:24;24.00;47.10
74666;DHT22;71408;50.106;8.694;2023-08-31T11:33:49;23.90;46.80
74666;DHT22;71408;50.106;8.694;2023-08-31T11:36:15;23.90;47.00
74666;DHT22;71408;50.106;8.694;2023-08-31T11:38:43;23.90;47.00
74666;DHT22;71408;50.106;8.694;2023-08-31T11:41:08;23.90;46.80
74666;DHT22;71408;50.106;8.694;2023-08-31T11:43:34;23.90;46.80
74666;DHT22;71408;50.106;8.694;2023-08-31T11:45:59;23.90;47.00
74666;DHT22;71408;50.106;8.694;2023-08-31T11:48:25;23.90;47.00
74666;DHT22;71408;50.106;8.694;2023-08-31T11:50:51;23.90;46.70
74666;DHT22;71408;50.106;8.694;2023-08-31T11:53:18;23.90;46.50
74666;DHT22;71408;50.106;8.694;2023-08-31T11:55:50;23.90;46.50
74666;DHT22;71408;50.106;8.694;2023-08-31T11:58:16;23.90;46.60
74666;DHT22;71408;50.106;8.694;2023-08-31T12:00:42;23.90;46.70
74666;DHT22;71408;50.106;8.694;2023-08-31T12:03:08;23.90;46.80
74666;DHT22;71408;50.106;8.694;2023-08-31T12:05:46;23.90;46.70
74666;DHT22;71408;50.106;8.694;2023-08-31T12:08:12;23.90;46.60
74666;DHT22;71408;50.106;8.694;2023-08-31T12:10:41;23.90;46.60
74666;DHT22;71408;50.106;8.694;2023-08-31T12:13:08;24.00;46.60
74666;DHT22;71408;50.106;8.694;2023-08-31T12:15:33;23.90;46.70
74666;DHT22;71408;50.106;8.694;2023-08-31T12:18:06;23.90;46.50
74666;DHT22;71408;50.106;8.694;2023-08-31T12:20:31;23.90;46.60
74666;DHT22;71408;50.106;8.694;2023-08-31T12:22:58;23.90;46.60
74666;DHT22;71408;50.106;8.694;2023-08-31T12:25:23;24.00;47.30
74666;DHT22;71408;50.106;8.694;2023-08-31T12:27:49;24.00;46.50
74666;DHT22;71408;50.106;8.694;2023-08-31T12:30:15;24.10;46.40
74666;DHT22;71408;50.106;8.694;2023-08-31T12:32:40;24.10;47.00
74666;DHT22;71408;50.106;8.694;2023-08-31T12:35:06;24.10;46.40
74666;DHT22;71408;50.106;8.694;2023-08-31T12:37:32;24.10;46.30
74666;DHT22;71408;50.106;8.694;2023-08-31T12:39:57;24.10;46.10
74666;DHT22;71408;50.106;8.694;2023-08-31T12:42:23;24.20;46.10
74666;DHT22;71408;50.106;8.694;2023-08-31T12:44:49;24.30;45.90
74666;DHT22;71408;50.106;8.694;2023-08-31T12:47:14;24.30;45.70
74666;DHT22;71408;50.106;8.694;2023-08-31T12:49:40;24.40;45.80
74666;DHT22;71408;50.106;8.694;2023-08-31T12:52:05;24.40;45.70
74666;DHT22;71408;50.106;8.694;2023-08-31T12:54:30;24.40;45.70
74666;DHT22;71408;50.106;8.694;2023-08-31T12:56:56;24.40;45.70
74666;DHT22;71408;50.106;8.694;2023-08-31T12:59:22;24.40;45.80
74666;DHT22;71408;50.106;8.694;2023-08-31T13:01:47;24.30;45.90
74666;DHT22;71408;50.106;8.694;2023-08-31T13:04:13;24.30;46.00
74666;DHT22;71408;50.106;8.694;2023-08-31T13:06:39;24.30;46.00
74666;DHT22;71408;50.106;8.694;2023-08-31T13:09:05;24.30;46.00
74666;DHT22;71408;50.106;8.694;2023-08-31T13:11:34;24.30;46.20
74666;DHT22;71408;50.106;8.694;2023-08-31T13:13:59;24.20;46.10
74666;DHT22;71408;50.106;8.694;2023-08-31T13:16:24;24.20;46.10
74666;DHT22;71408;50.106;8.694;2023-08-31T13:18:50;24.30;46.00
74666;DHT22;71408;50.106;8.694;2023-08-31T13:21:16;24.30;45.80
74666;DHT22;71408;50.106;8.694;2023-08-31T13:23:41;24.20;45.90
74666;DHT22;71408;50.106;8.694;2023-08-31T13:26:09;24.30;45.40
74666;DHT22;71408;50.106;8.694;2023-08-31T13:28:35;24.30;45.00
74666;DHT22;71408;50.106;8.694;2023-08-31T13:31:01;24.30;45.20
74666;DHT22;71408;50.106;8.694;2023-08-31T13:33:26;24.20;45.00
74666;DHT22;71408;50.106;8.694;2023-08-31T13:35:54;24.20;45.20
74666;DHT22;71408;50.106;8.694;2023-08-31T13:38:19;24.20;44.70
74666;DHT22;71408;50.106;8.694;2023-08-31T13:40:45;24.20;44.90
74666;DHT22;71408;50.106;8.694;2023-08-31T13:43:10;24.20;44.80
74666;DHT22;71408;50.106;8.694;2023-08-31T13:45:35;24.20;44.40
74666;DHT22;71408;50.106;8.694;2023-08-31T13:48:01;24.30;43.70
74666;DHT22;71408;50.106;8.694;2023-08-31T13:50:29;24.20;44.00
74666;DHT22;71408;50.106;8.694;2023-08-31T13:52:55;24.30;44.00
74666;DHT22;71408;50.106;8.694;2023-08-31T13:55:20;24.30;43.80
74666;DHT22;71408;50.106;8.694;2023-08-31T13:57:46;24.20;41.20
74666;DHT22;71408;50.106;8.694;2023-08-31T14:00:12;24.10;41.80
74666;DHT22;71408;50.106;8.694;2023-08-31T14:02:37;24.00;42.20
74666;DHT22;71408;50.106;8.694;2023-08-31T14:05:03;24.00;41.80
74666;DHT22;71408;50.106;8.694;2023-08-31T14:07:29;23.90;42.20
74666;DHT22;71408;50.106;8.694;2023-08-31T14:09:54;23.90;41.20
74666;DHT22;71408;50.106;8.694;2023-08-31T14:12:20;23.90;41.50
74666;DHT22;71408;50.106;8.694;2023-08-31T14:14:47;23.90;41.30
74666;DHT22;71408;50.106;8.694;2023-08-31T14:17:12;23.90;40.70
74666;DHT22;71408;50.106;8.694;2023-08-31T14:19:38;23.90;40.50
74666;DHT22;71408;50.106;8.694;2023-08-31T14:22:04;23.80;40.00
74666;DHT22;71408;50.106;8.694;2023-08-31T14:24:30;23.80;41.00
74666;DHT22;71408;50.106;8.694;2023-08-31T14:26:55;23.80;40.50
74666;DHT22;71408;50.106;8.694;2023-08-31T14:29:21;23.80;40.30
74666;DHT22;71408;50.106;8.694;2023-08-31T14:31:46;23.80;39.70
74666;DHT22;71408;50.106;8.694;2023-08-31T14:34:12;23.70;40.70
74666;DHT22;71408;50.106;8.694;2023-08-31T14:36:37;23.70;41.20
74666;DHT22;71408;50.106;8.694;2023-08-31T14:39:02;23.80;40.30
74666;DHT22;71408;50.106;8.694;2023-08-31T14:41:29;23.90;40.70
74666;DHT22;71408;50.106;8.694;2023-08-31T14:43:55;23.80;40.20
74666;DHT22;71408;50.106;8.694;2023-08-31T14:46:20;23.70;39.70
74666;DHT22;71408;50.106;8.694;2023-08-31T14:48:47;23.60;39.90
74666;DHT22;71408;50.106;8.694;2023-08-31T14:51:12;23.60;40.00
74666;DHT22;71408;50.106;8.694;2023-08-31T14:53:38;23.60;39.80
74666;DHT22;71408;50.106;8.694;2023-08-31T14:56:05;23.70;39.80
74666;DHT22;71408;50.106;8.694;2023-08-31T14:58:30;23.70;40.00
74666;DHT22;71408;50.106;8.694;2023-08-31T15:00:56;23.60;40.10
74666;DHT22;71408;50.106;8.694;2023-08-31T15:03:22;23.60;40.00
74666;DHT22;71408;50.106;8.694;2023-08-31T15:05:49;23.60;40.20
74666;DHT22;71408;50.106;8.694;2023-08-31T15:08:15;23.50;40.00
74666;DHT22;71408;50.106;8.694;2023-08-31T15:10:40;23.40;39.70
74666;DHT22;71408;50.106;8.694;2023-08-31T15:13:06;23.40;39.90
74666;DHT22;71408;50.106;8.694;2023-08-31T15:15:31;23.40;40.00
74666;DHT22;71408;50.106;8.694;2023-08-31T15:17:57;23.50;40.20
74666;DHT22;71408;50.106;8.694;2023-08-31T15:20:23;23.50;40.20
74666;DHT22;71408;50.106;8.694;2023-08-31T15:22:48;23.50;40.20
74666;DHT22;71408;50.106;8.694;2023-08-31T15:25:14;23.40;40.30
74666;DHT22;71408;50.106;8.694;2023-08-31T15:27:41;23.50;40.60
74666;DHT22;71408;50.106;8.694;2023-08-31T15:30:07;23.50;40.70